首页
METAR-TAF:

METAR-TAF

机场 :

马略卡岛帕尔马机场

帕爾馬, 西班牙

纬度: 39-33N, 经度: 002-44E, 海拔: 4米

当前天气观测

该预报发布于28分钟前的12:00 UTC
风速13节,风向西南
温度 30°C
湿度 59%
气压 1015 hPa
能见度10公里或以上
少量云层高于3000英尺
散云层高于4000英尺

METAR: LEPA 161200Z 23013KT 9999 FEW030 SCT040 30/21 Q1015 NOSIG

时间: 14:28 (12:28 UTC)

预报

该预报发布于1小时和28分钟前的11:00 UTC
预报有效从16日的 12点(UTC)到 17日的 12点(UTC)
风速12节,风向西南
能见度10公里或以上
少量云层高于2000英尺
几率 40% :
短暂存在
从 16日的 12点(UTC)到 16日的 18点(UTC)
少量云层高于4000英尺, 积雨云.
几率 30% :
短暂存在
从 16日的 13点(UTC)到 16日的 18点(UTC)
能見度: 4000
阵雨
成为
从 16日的 17点(UTC)到 16日的 19点(UTC)
风速4节,风向多变
成为
从 17日的 07点(UTC)到 17日的 09点(UTC)
风速10节,风向西南

TAF: LEPA 161100Z 1612/1712 22012KT 9999 FEW020 TX31/1612Z TN21/1706Z PROB40 TEMPO 1612/1618 FEW040CB PROB30 TEMPO 1613/1618 4000 SHRA BECMG 1617/1619 VRB04KT BECMG 1707/1709 22010KT

超过4000个机场的气象观测和天气预报(METAR&TAF报告)。

可查询的气象台以黄色和红色小点在地图上表示。

将鼠标移到小点上方,可查看气象台名称。

然后点击查看天气观测和预报。

如需切换地图:点击带黑十字的绿色按钮放大地图;点击带横线的绿色按钮缩小地图;或者点击绿色箭头查看邻近地区的地图。


METAR-TAF: